TimeMST,TemperatureF,Dew PointF,Humidity,Sea Level PressureIn,VisibilityMPH,Wind Direction,Wind SpeedMPH,Gust SpeedMPH,PrecipitationIn,Events,Conditions,WindDirDegrees,DateUTC
12:56 AM,9.0,3.9,80,30.27,10.0,East,3.5,-,N/A,,Overcast,80,2012-12-31 07:56:00
1:56 AM,10.9,6.1,81,30.27,10.0,Calm,Calm,-,N/A,,Overcast,0,2012-12-31 08:56:00
2:56 AM,12.0,7.0,80,30.29,10.0,Calm,Calm,-,N/A,,Overcast,0,2012-12-31 09:56:00
3:56 AM,12.0,6.1,77,30.30,10.0,SSW,6.9,-,N/A,,Overcast,200,2012-12-31 10:56:00
4:56 AM,10.9,6.1,81,30.30,10.0,ENE,4.6,-,N/A,,Overcast,70,2012-12-31 11:56:00
5:56 AM,10.9,6.1,81,30.33,10.0,SSE,3.5,-,N/A,,Overcast,160,2012-12-31 12:56:00
6:56 AM,8.6,5.0,85,30.08,10.0,Calm,Calm,-,N/A,,Overcast,0,2012-12-31 13:56:00
7:56 AM,12.0,7.0,80,30.33,10.0,SSW,3.5,-,N/A,,Overcast,200,2012-12-31 14:56:00
8:56 AM,12.9,7.0,77,30.35,10.0,Calm,Calm,-,N/A,,Overcast,0,2012-12-31 15:56:00
9:56 AM,12.0,7.0,80,30.38,8.0,West,4.6,-,N/A,,Overcast,280,2012-12-31 16:56:00
10:56 AM,15.1,8.1,74,30.36,8.0,Calm,Calm,-,N/A,,Mostly Cloudy,0,2012-12-31 17:56:00
11:56 AM,17.1,8.1,68,30.31,10.0,North,3.5,-,N/A,,Clear,350,2012-12-31 18:56:00
12:56 PM,15.1,8.1,74,30.31,10.0,NNW,3.5,-,N/A,,Clear,340,2012-12-31 19:56:00
1:56 PM,15.1,8.1,74,30.31,10.0,WNW,5.8,-,N/A,,Scattered Clouds,290,2012-12-31 20:56:00
2:56 PM,19.0,9.0,65,30.28,10.0,West,3.5,-,N/A,,Overcast,270,2012-12-31 21:56:00
3:56 PM,19.0,9.0,65,30.30,10.0,Calm,Calm,-,N/A,,Overcast,0,2012-12-31 22:56:00
4:56 PM,19.0,10.0,68,30.31,10.0,Calm,Calm,-,N/A,,Overcast,0,2012-12-31 23:56:00
5:56 PM,18.0,10.9,74,30.31,10.0,Calm,Calm,-,N/A,,Overcast,0,2013-01-01 00:56:00
6:56 PM,19.0,10.0,68,30.32,10.0,Calm,Calm,-,N/A,,Overcast,0,2013-01-01 01:56:00
7:56 PM,19.0,12.0,74,30.32,10.0,Calm,Calm,-,N/A,,Overcast,0,2013-01-01 02:56:00
8:56 PM,18.0,12.0,78,30.32,10.0,Calm,Calm,-,N/A,,Overcast,0,2013-01-01 03:56:00
9:56 PM,19.0,10.9,71,30.34,10.0,Calm,Calm,-,N/A,,Overcast,0,2013-01-01 04:56:00
10:56 PM,18.0,12.0,78,30.36,10.0,SSE,3.5,-,N/A,,Overcast,150,2013-01-01 05:56:00
11:56 PM,19.0,12.9,77,30.36,10.0,SSE,4.6,-,N/A,,Overcast,150,2013-01-01 06:56:00